To NAV CANADA Home Page Login to a new session Search on AWWS site Feedback and Comments Disclaimer Vers la page française équivalente Tips FAQ What's new on the site To the Forecasts and Observations / NOTAM section To "File a Flight Plan" website Publications and other links Update of the User's profile FIC Telephone Numbers My Weather Data Folder Route Weather Data Regional Weather Data Local Weather Data To the Forecasts and Observations / NOTAM section
Request Generated 05/31/2016 at 05:42:15 UTC . Weather information available at that time is displayed.

METAR/TAF

LOURDES-DE-BLANC-SABLON/QC    

METAR CYBX 310500Z 14006KT 1SM -DZ BR OVC005 06/06 A2970 RMK FG5ST3
SLP061=
METAR CYBX 310400Z 14007KT 1 1/2SM -DZ BR OVC005 06/06 A2973 RMK
FG4ST4 SLP070=
METAR CYBX 310300Z 13009KT 2SM -DZ BR OVC006 06/06 A2976 RMK FG3ST5
SLP080=

TAF CYBX 310138Z 3102/3114 13006KT 2SM -DZ BR OVC006
FM310600 12006KT 11/2SM -SHRA BR OVC004 TEMPO 3106/3114 3/4SM -DZ
BR VV002
RMK NXT FCST BY 310800Z=
Your time UTC time
Weather data provided by Environment Canada and NAV CANADA